Carolyn Ann — WDE6535 — position and weather

sailwx.info

Track history (hours):
 
Tides and Currents Weather Stations Pressure Air Temp Water Temp Dewpoint Dewpoint Depression Visibility Wind Speed Wind Dir Waves Ship Positions

Carolyn Ann

Owner: Pica, Joseph C, New Bern, NC. More information available from US FCC via Universal Licensing System and Coast Guard Vessel Documentation Center.

Last reported at 2017-Nov-09 17:21 UTC. Time now 2017-Nov-20 07:57 UTC.
Position N 31°55' W 081°06'.
Warning: this ship's position is 10 days out of date.

Length 12 m.

Type: Pleasure craft. MMSI: 367381460.

Date/timePositionNaut miles runAvg speedWind from/ knotsBaromVisibWave heightAir tempDewpointWater temp
2017-Nov-09 17:21N 31°55' W 081°06'2 3.8
2017-Nov-09 16:50N 31°57' W 081°05'2 6.5
2017-Nov-09 16:30N 31°58' W 081°03'3 5.1
2017-Nov-09 16:00N 32°00' W 081°01'0 0.1
2017-Nov-09 13:31N 32°00' W 081°01'0 0.0
2017-Nov-09 13:19N 32°00' W 081°01'0 0.0
2017-Nov-09 12:55N 32°00' W 081°01'0 0.0
2017-Nov-09 12:25N 32°00' W 081°01'0 0.0
2017-Nov-09 11:43N 32°00' W 081°01'0 0.0
2017-Nov-09 11:13N 32°00' W 081°01'0 0.0
2017-Nov-09 10:07N 32°00' W 081°01'0 0.0
2017-Nov-09 09:55N 32°00' W 081°01'0 0.0
2017-Nov-09 08:07N 32°00' W 081°01'0 0.0
2017-Nov-09 07:55N 32°00' W 081°01'0 0.0
2017-Nov-09 07:25N 32°00' W 081°01'0 0.0
2017-Nov-09 06:55N 32°00' W 081°01'0 0.0
2017-Nov-09 06:25N 32°00' W 081°01'0 0.0
2017-Nov-09 01:06N 32°00' W 081°01'0 1.9
2017-Nov-09 00:58N 32°01' W 081°01'1 1.4
2017-Nov-09 00:26N 32°01' W 081°01'0 0.0
2017-Nov-08 22:45N 32°01' W 081°01'0 0.0
2017-Nov-08 22:27N 32°01' W 081°01'0 0.0
2017-Nov-08 21:57N 32°01' W 081°01'0 0.0
2017-Nov-08 21:24N 32°01' W 081°01'2 4.3
2017-Nov-08 21:00N 32°03' W 081°02'2 4.7
2017-Nov-08 20:30N 32°04' W 080°59'3 6.6
2017-Nov-08 20:00N 32°05' W 080°56'3 5.3
2017-Nov-08 19:30N 32°07' W 080°54'3 5.5
2017-Nov-08 19:00N 32°09' W 080°51'  
Track history (hours):
 
Tides and Currents Weather Stations Pressure Air Temp Water Temp Dewpoint Dewpoint Depression Visibility Wind Speed Wind Dir Waves Ship Positions

Carolyn Ann

Owner: Pica, Joseph C, New Bern, NC. More information available from US FCC via Universal Licensing System and Coast Guard Vessel Documentation Center.

Last reported at 2017-Nov-09 17:21 UTC. Time now 2017-Nov-20 07:57 UTC.
Position N 31°55' W 081°06'.
Warning: this ship's position is 10 days out of date.

Length 12 m.

Type: Pleasure craft. MMSI: 367381460.

Date/timePositionNaut miles runAvg speedWind from/ knotsBaromVisibWave heightAir tempDewpointWater temp
2017-Nov-09 17:21N 31°55' W 081°06'2 3.8
2017-Nov-09 16:50N 31°57' W 081°05'2 6.5
2017-Nov-09 16:30N 31°58' W 081°03'3 5.1
2017-Nov-09 16:00N 32°00' W 081°01'0 0.1
2017-Nov-09 13:31N 32°00' W 081°01'0 0.0
2017-Nov-09 13:19N 32°00' W 081°01'0 0.0
2017-Nov-09 12:55N 32°00' W 081°01'0 0.0
2017-Nov-09 12:25N 32°00' W 081°01'0 0.0
2017-Nov-09 11:43N 32°00' W 081°01'0 0.0
2017-Nov-09 11:13N 32°00' W 081°01'0 0.0
2017-Nov-09 10:07N 32°00' W 081°01'0 0.0
2017-Nov-09 09:55N 32°00' W 081°01'0 0.0
2017-Nov-09 08:07N 32°00' W 081°01'0 0.0
2017-Nov-09 07:55N 32°00' W 081°01'0 0.0
2017-Nov-09 07:25N 32°00' W 081°01'0 0.0
2017-Nov-09 06:55N 32°00' W 081°01'0 0.0
2017-Nov-09 06:25N 32°00' W 081°01'0 0.0
2017-Nov-09 01:06N 32°00' W 081°01'0 1.9
2017-Nov-09 00:58N 32°01' W 081°01'1 1.4
2017-Nov-09 00:26N 32°01' W 081°01'0 0.0
2017-Nov-08 22:45N 32°01' W 081°01'0 0.0
2017-Nov-08 22:27N 32°01' W 081°01'0 0.0
2017-Nov-08 21:57N 32°01' W 081°01'0 0.0
2017-Nov-08 21:24N 32°01' W 081°01'2 4.3
2017-Nov-08 21:00N 32°03' W 081°02'2 4.7
2017-Nov-08 20:30N 32°04' W 080°59'3 6.6
2017-Nov-08 20:00N 32°05' W 080°56'3 5.3
2017-Nov-08 19:30N 32°07' W 080°54'3 5.5
2017-Nov-08 19:00N 32°09' W 080°51'  

Dump ship's entire track history